Time;durP1;ratioP1;P1;durP2;ratioP2;P2;SDS_P1;SDS_P2;PMS_P1;PMS_P2;Temp;Humidity;BMP_temperature;BMP_pressure;BME280_temperature;BME280_humidity;BME280_pressure;Samples;Min_cycle;Max_cycle;Signal;HPM_P1;HPM_P2
2021/05/28 00:01:15;;;;;;;5.07;3.70;;;9.60;99.90;;;;;;5037558;28;20112;-80
2021/05/28 00:03:41;;;;;;;5.43;3.65;;;9.60;99.90;;;;;;5037504;28;20057;-80
2021/05/28 00:06:07;;;;;;;11.70;4.15;;;9.60;99.90;;;;;;5020958;28;20036;-81
2021/05/28 00:08:33;;;;;;;5.25;3.65;;;9.60;99.90;;;;;;5037492;28;20053;-78
2021/05/28 00:10:59;;;;;;;7.70;4.15;;;9.60;99.90;;;;;;5019904;28;20576;-79
2021/05/28 00:13:25;;;;;;;6.53;4.25;;;9.60;99.90;;;;;;5037206;28;20037;-80
2021/05/28 00:15:51;;;;;;;9.52;5.05;;;9.60;99.90;;;;;;5036503;28;20033;-80
2021/05/28 00:18:17;;;;;;;5.47;3.67;;;9.60;99.90;;;;;;5037813;28;20025;-78
2021/05/28 00:20:43;;;;;;;6.07;3.75;;;9.60;99.90;;;;;;5037206;28;20040;-78
2021/05/28 00:23:09;;;;;;;4.90;3.33;;;9.60;99.90;;;;;;5031009;28;20025;-80
2021/05/28 00:25:35;;;;;;;5.10;3.50;;;9.60;99.90;;;;;;5036716;28;20092;-79
2021/05/28 00:28:00;;;;;;;3.72;3.10;;;9.60;99.90;;;;;;5039001;28;20033;-80
2021/05/28 00:30:26;;;;;;;4.90;3.63;;;9.60;99.90;;;;;;5020658;28;20095;-79
2021/05/28 00:32:52;;;;;;;5.28;3.58;;;9.60;99.90;;;;;;5038061;28;20022;-80
2021/05/28 00:35:18;;;;;;;3.88;3.10;;;9.50;99.90;;;;;;5029321;28;20085;-80
2021/05/28 00:37:44;;;;;;;4.90;3.63;;;9.50;99.90;;;;;;5037984;28;20033;-81
2021/05/28 00:40:11;;;;;;;4.55;3.20;;;9.50;99.90;;;;;;5034751;28;20057;-80
2021/05/28 00:42:37;;;;;;;4.85;3.40;;;9.50;99.90;;;;;;5036383;28;20052;-81
2021/05/28 00:45:04;;;;;;;4.05;3.00;;;9.50;99.90;;;;;;5036134;28;20445;-80
2021/05/28 00:47:29;;;;;;;4.13;3.25;;;9.50;99.90;;;;;;5036243;28;20049;-78
2021/05/28 00:49:55;;;;;;;6.03;3.40;;;9.50;99.90;;;;;;5035084;28;20030;-81
2021/05/28 00:52:21;;;;;;;5.30;3.47;;;9.50;99.90;;;;;;5036245;28;20120;-81
2021/05/28 00:54:47;;;;;;;5.05;3.83;;;9.50;99.90;;;;;;5036560;28;20112;-80
2021/05/28 00:57:13;;;;;;;4.72;3.35;;;9.50;99.90;;;;;;5035126;28;20083;-81
2021/05/28 00:59:39;;;;;;;5.22;4.13;;;9.50;99.90;;;;;;5035770;28;20044;-80
2021/05/28 01:02:05;;;;;;;6.93;3.60;;;9.40;99.90;;;;;;5035982;28;20401;-80
2021/05/28 01:04:31;;;;;;;4.00;3.00;;;9.50;99.90;;;;;;5034157;28;20108;-79
2021/05/28 01:06:57;;;;;;;7.22;3.95;;;9.40;99.90;;;;;;5037381;28;20516;-81
2021/05/28 01:09:22;;;;;;;5.65;3.60;;;9.40;99.90;;;;;;5036263;28;20041;-78
2021/05/28 01:11:48;;;;;;;5.82;4.05;;;9.40;99.90;;;;;;5002482;28;20157;-81
2021/05/28 01:14:14;;;;;;;5.25;3.78;;;9.40;99.90;;;;;;5030982;28;20029;-80
2021/05/28 01:16:40;;;;;;;7.75;4.50;;;9.40;99.90;;;;;;5036322;28;20104;-80
2021/05/28 01:19:06;;;;;;;5.40;3.53;;;9.40;99.90;;;;;;5038152;28;20025;-81
2021/05/28 01:21:32;;;;;;;7.38;3.92;;;9.40;99.90;;;;;;5036292;28;20049;-80
2021/05/28 01:23:57;;;;;;;6.00;4.28;;;9.40;99.90;;;;;;5036474;28;20045;-81
2021/05/28 01:26:23;;;;;;;5.75;4.53;;;9.40;99.90;;;;;;5036309;28;20405;-79
2021/05/28 01:28:49;;;;;;;4.90;3.97;;;9.30;99.90;;;;;;5036539;28;20048;-80
2021/05/28 01:31:15;;;;;;;5.88;4.40;;;9.30;99.90;;;;;;5019955;28;20477;-78
2021/05/28 01:33:43;;;;;;;7.05;3.90;;;9.30;99.90;;;;;;5036453;28;20049;-81
2021/05/28 01:36:09;;;;;;;8.52;4.20;;;9.30;99.90;;;;;;5018801;28;20037;-80
2021/05/28 01:38:35;;;;;;;5.57;3.85;;;9.30;99.90;;;;;;5032831;28;20018;-81
2021/05/28 01:41:00;;;;;;;6.15;3.78;;;9.30;99.90;;;;;;5036595;28;20398;-80
2021/05/28 01:43:26;;;;;;;7.53;4.75;;;9.30;99.90;;;;;;5034448;28;20049;-80
2021/05/28 01:45:52;;;;;;;7.13;5.00;;;9.30;99.90;;;;;;5035561;28;20128;-80
2021/05/28 01:48:18;;;;;;;8.20;5.15;;;9.30;99.90;;;;;;5040257;28;20037;-79
2021/05/28 01:50:44;;;;;;;7.40;4.75;;;9.30;99.90;;;;;;5040797;28;20034;-79
2021/05/28 01:53:18;;;;;;;6.03;4.25;;;9.30;99.90;;;;;;5039576;28;20032;-79
2021/05/28 01:55:45;;;;;;;7.10;4.60;;;9.30;99.90;;;;;;5038050;28;20484;-78
2021/05/28 01:58:12;;;;;;;8.02;5.45;;;9.30;99.90;;;;;;5041099;28;20631;-79
2021/05/28 02:00:39;;;;;;;6.30;4.38;;;9.30;99.90;;;;;;5041661;28;20107;-80
2021/05/28 02:03:05;;;;;;;7.55;4.32;;;9.30;99.90;;;;;;5038023;28;20117;-80
2021/05/28 02:05:32;;;;;;;6.80;4.22;;;9.30;99.90;;;;;;5023703;28;20071;-80
2021/05/28 02:07:59;;;;;;;6.22;4.40;;;9.30;99.90;;;;;;5038465;28;20044;-79
2021/05/28 02:10:24;;;;;;;5.88;4.22;;;9.30;99.90;;;;;;5041876;28;20018;-78
2021/05/28 02:12:52;;;;;;;5.97;3.97;;;9.30;99.90;;;;;;5040962;28;20097;-80
2021/05/28 02:15:17;;;;;;;6.07;4.22;;;9.30;99.90;;;;;;5043012;28;20520;-79
2021/05/28 02:17:43;;;;;;;7.20;4.20;;;9.30;99.90;;;;;;5034115;28;20034;-79
2021/05/28 02:20:10;;;;;;;7.15;4.10;;;9.30;99.90;;;;;;5023058;28;20033;-78
2021/05/28 02:22:36;;;;;;;6.88;4.07;;;9.30;99.90;;;;;;5040491;28;20060;-80
2021/05/28 02:25:03;;;;;;;6.43;4.47;;;9.30;99.90;;;;;;5024014;28;20037;-79
2021/05/28 02:27:28;;;;;;;6.53;4.18;;;9.30;99.90;;;;;;5040051;28;20040;-80
2021/05/28 02:29:54;;;;;;;5.03;3.65;;;9.30;99.90;;;;;;5041895;28;20033;-80
2021/05/28 02:32:20;;;;;;;6.20;4.07;;;9.20;99.90;;;;;;5039260;28;20108;-79
2021/05/28 02:34:46;;;;;;;6.40;4.07;;;9.20;99.90;;;;;;5022881;28;20033;-79
2021/05/28 02:37:11;;;;;;;7.63;4.22;;;9.20;99.90;;;;;;5006639;28;20032;-79
2021/05/28 02:39:37;;;;;;;6.50;4.30;;;9.20;99.90;;;;;;5042448;28;20025;-79
2021/05/28 02:42:03;;;;;;;7.32;5.25;;;9.20;99.90;;;;;;5023427;28;20102;-79
2021/05/28 02:44:29;;;;;;;10.00;5.22;;;9.20;99.90;;;;;;5039428;28;20402;-80
2021/05/28 02:46:55;;;;;;;6.72;4.35;;;9.20;99.90;;;;;;5039657;28;20247;-79
2021/05/28 02:49:21;;;;;;;6.97;5.13;;;9.30;99.90;;;;;;5040403;28;20029;-80
2021/05/28 02:51:46;;;;;;;6.07;4.05;;;9.30;99.90;;;;;;5039608;28;20037;-79
2021/05/28 02:54:12;;;;;;;6.60;4.00;;;9.20;99.90;;;;;;5021649;28;20087;-80
2021/05/28 02:56:38;;;;;;;5.93;4.07;;;9.20;99.90;;;;;;5039714;28;20080;-79
2021/05/28 02:59:03;;;;;;;5.95;4.00;;;9.20;99.90;;;;;;5039995;28;20067;-80
2021/05/28 03:01:29;;;;;;;5.57;4.20;;;9.20;99.90;;;;;;5040767;28;20120;-80
2021/05/28 03:03:55;;;;;;;8.13;5.70;;;9.20;99.90;;;;;;5040401;28;20030;-79
2021/05/28 03:06:21;;;;;;;6.60;4.60;;;9.20;99.90;;;;;;5035876;28;20026;-80
2021/05/28 03:08:46;;;;;;;6.40;4.82;;;9.30;99.90;;;;;;5023281;28;20540;-79
2021/05/28 03:11:12;;;;;;;9.02;5.93;;;9.30;99.90;;;;;;5040350;28;20080;-78
2021/05/28 03:13:38;;;;;;;8.65;4.90;;;9.30;99.90;;;;;;5038602;28;20080;-79
2021/05/28 03:16:04;;;;;;;8.38;5.68;;;9.30;99.90;;;;;;5039119;28;20316;-80
2021/05/28 03:23:58;;;;;;;8.65;5.18;;;9.20;99.90;;;;;;5022156;28;20045;-79
2021/05/28 03:26:25;;;;;;;7.65;4.78;;;9.20;99.90;;;;;;5039077;28;20025;-80
2021/05/28 03:28:52;;;;;;;6.95;4.97;;;9.20;99.90;;;;;;5035036;28;20036;-77
2021/05/28 03:31:19;;;;;;;10.02;4.43;;;9.20;99.90;;;;;;5040656;28;20652;-79
2021/05/28 03:33:45;;;;;;;6.97;4.65;;;9.20;99.90;;;;;;5040243;28;20033;-79
2021/05/28 03:36:13;;;;;;;7.38;4.32;;;9.20;99.90;;;;;;5038774;28;20041;-78
2021/05/28 03:38:39;;;;;;;7.45;4.57;;;9.20;99.90;;;;;;5036806;28;20026;-78
2021/05/28 03:41:05;;;;;;;6.25;4.57;;;9.20;99.90;;;;;;5039700;28;20017;-79
2021/05/28 03:43:31;;;;;;;7.60;4.95;;;9.30;99.90;;;;;;5039012;28;20137;-78
2021/05/28 03:45:57;;;;;;;9.15;5.25;;;9.30;99.90;;;;;;5041098;28;20032;-78
2021/05/28 03:48:23;;;;;;;7.53;5.15;;;9.30;99.90;;;;;;5037553;28;20104;-78
2021/05/28 03:50:49;;;;;;;7.13;4.47;;;9.30;99.90;;;;;;5037478;28;20038;-79
2021/05/28 03:53:15;;;;;;;6.93;4.63;;;9.40;99.90;;;;;;5034214;28;20029;-80
2021/05/28 03:55:40;;;;;;;7.85;5.22;;;9.30;99.90;;;;;;5041131;28;20029;-80
2021/05/28 03:58:06;;;;;;;6.93;4.97;;;9.40;99.90;;;;;;5041041;28;20030;-79
2021/05/28 04:00:32;;;;;;;7.88;5.07;;;9.40;99.90;;;;;;5038596;28;20037;-78
2021/05/28 04:02:57;;;;;;;7.55;4.65;;;9.40;99.90;;;;;;5039489;28;20041;-79
2021/05/28 04:05:23;;;;;;;7.32;4.40;;;9.40;99.90;;;;;;5039162;28;20413;-79
2021/05/28 04:07:49;;;;;;;5.05;4.15;;;9.40;99.90;;;;;;5037157;28;20052;-79
2021/05/28 04:10:16;;;;;;;5.53;4.22;;;9.50;99.90;;;;;;5036813;28;20505;-81
2021/05/28 04:12:41;;;;;;;6.43;4.63;;;9.50;99.90;;;;;;5035107;28;20080;-80
2021/05/28 04:15:08;;;;;;;5.15;3.85;;;9.50;99.90;;;;;;5035303;28;20033;-80
2021/05/28 04:17:34;;;;;;;8.00;4.30;;;9.60;99.90;;;;;;5036337;28;20060;-79
2021/05/28 04:19:59;;;;;;;5.15;3.22;;;9.60;99.90;;;;;;5039190;28;20029;-79
2021/05/28 04:22:25;;;;;;;4.95;3.60;;;9.70;99.90;;;;;;5036884;28;20049;-80
2021/05/28 04:24:52;;;;;;;6.68;4.63;;;9.70;99.90;;;;;;5036841;28;20036;-80
2021/05/28 04:27:17;;;;;;;9.57;6.38;;;9.70;99.90;;;;;;5033445;28;20030;-79
2021/05/28 04:29:43;;;;;;;6.72;4.63;;;9.70;99.90;;;;;;5010665;28;20052;-80
2021/05/28 04:32:09;;;;;;;7.18;4.68;;;9.80;99.90;;;;;;5021386;28;20029;-80
2021/05/28 04:34:35;;;;;;;7.15;4.93;;;9.80;99.90;;;;;;5030009;28;20065;-80
2021/05/28 04:37:01;;;;;;;8.20;5.03;;;9.80;99.90;;;;;;5033285;28;20486;-80
2021/05/28 04:39:27;;;;;;;7.43;5.32;;;9.80;99.90;;;;;;5013823;28;20034;-79
2021/05/28 04:41:54;;;;;;;6.35;4.68;;;9.80;99.90;;;;;;5014079;28;20042;-80
2021/05/28 04:44:20;;;;;;;6.75;5.07;;;9.80;99.90;;;;;;4997664;28;20512;-79
2021/05/28 04:46:46;;;;;;;10.85;5.10;;;9.90;99.90;;;;;;5027891;28;20029;-79
2021/05/28 04:49:11;;;;;;;9.38;5.30;;;9.90;99.90;;;;;;4989962;28;20103;-80
2021/05/28 04:51:37;;;;;;;10.82;5.72;;;10.00;99.90;;;;;;5013702;28;20376;-80
2021/05/28 04:54:04;;;;;;;7.20;4.78;;;10.00;99.90;;;;;;5018802;28;20061;-79
2021/05/28 04:56:29;;;;;;;8.45;4.97;;;10.10;99.90;;;;;;5027855;28;20044;-80
2021/05/28 04:58:55;;;;;;;5.65;4.65;;;10.20;99.90;;;;;;5025958;28;20030;-80
2021/05/28 05:01:21;;;;;;;6.60;4.55;;;10.30;99.90;;;;;;5016960;28;20497;-80
2021/05/28 05:03:47;;;;;;;5.75;3.83;;;10.40;99.90;;;;;;5023364;28;20060;-80
2021/05/28 05:06:13;;;;;;;8.65;5.40;;;10.40;99.90;;;;;;5019430;28;20033;-80
2021/05/28 05:08:38;;;;;;;9.52;5.57;;;10.50;99.90;;;;;;5031206;28;20409;-80
2021/05/28 05:11:04;;;;;;;7.68;5.07;;;10.60;99.90;;;;;;5014166;28;20398;-80
2021/05/28 05:13:30;;;;;;;8.55;5.38;;;10.70;99.90;;;;;;5019075;28;20600;-79
2021/05/28 05:15:55;;;;;;;9.30;4.88;;;10.80;99.90;;;;;;5015836;28;20041;-79
2021/05/28 05:18:24;;;;;;;6.80;4.35;;;10.80;99.90;;;;;;5032037;28;20124;-79
2021/05/28 05:20:50;;;;;;;6.78;4.53;;;10.90;99.90;;;;;;5036856;28;20025;-79
2021/05/28 05:23:16;;;;;;;6.60;5.15;;;10.90;99.90;;;;;;5033583;28;20069;-79
2021/05/28 05:25:41;;;;;;;6.85;4.70;;;11.00;99.90;;;;;;5028927;28;20060;-79
2021/05/28 05:28:07;;;;;;;7.93;5.07;;;11.10;99.90;;;;;;5014131;28;20057;-80
2021/05/28 05:30:33;;;;;;;7.47;5.05;;;11.10;99.90;;;;;;5016340;28;20048;-80
2021/05/28 05:32:59;;;;;;;6.70;4.47;;;11.10;99.90;;;;;;5033578;28;20037;-80
2021/05/28 05:35:24;;;;;;;8.10;4.68;;;11.10;99.90;;;;;;5032427;28;20048;-80
2021/05/28 05:37:50;;;;;;;6.75;4.55;;;11.20;99.90;;;;;;4999121;28;20059;-80
2021/05/28 05:40:16;;;;;;;6.10;4.10;;;11.20;99.90;;;;;;5032716;28;20052;-80
2021/05/28 05:42:42;;;;;;;6.90;4.18;;;11.20;99.90;;;;;;5031704;28;20112;-80
2021/05/28 05:45:10;;;;;;;5.60;3.80;;;11.30;99.90;;;;;;5032304;28;20034;-79
2021/05/28 05:47:36;;;;;;;6.80;3.83;;;11.40;99.90;;;;;;5029833;28;20025;-79
2021/05/28 05:50:03;;;;;;;6.25;4.30;;;11.50;99.90;;;;;;5033753;28;20086;-79
2021/05/28 05:52:29;;;;;;;7.43;4.15;;;11.50;99.90;;;;;;5032285;28;20029;-79
2021/05/28 05:54:56;;;;;;;6.57;4.50;;;11.60;99.90;;;;;;5032651;28;20394;-80
2021/05/28 05:57:22;;;;;;;5.05;3.58;;;11.80;99.90;;;;;;5033098;28;20033;-80
2021/05/28 05:59:47;;;;;;;5.43;3.70;;;11.80;99.90;;;;;;5032233;28;20097;-80
2021/05/28 06:02:13;;;;;;;7.50;4.10;;;12.00;99.90;;;;;;5031654;28;20509;-79
2021/05/28 06:04:39;;;;;;;8.02;3.97;;;12.10;99.90;;;;;;5033229;28;20032;-79
2021/05/28 06:07:04;;;;;;;6.40;3.75;;;12.30;99.90;;;;;;5033531;28;20037;-78
2021/05/28 06:09:30;;;;;;;5.82;4.03;;;12.40;99.90;;;;;;5033473;28;20158;-79
2021/05/28 06:11:57;;;;;;;5.00;3.38;;;12.50;99.90;;;;;;5013320;28;20037;-79
2021/05/28 06:14:24;;;;;;;5.75;4.10;;;12.50;99.90;;;;;;5031277;28;20026;-79
2021/05/28 06:16:49;;;;;;;4.57;3.78;;;12.50;99.90;;;;;;5033137;28;20390;-80
2021/05/28 06:19:15;;;;;;;5.60;3.83;;;12.60;99.90;;;;;;5031819;28;20037;-78
2021/05/28 06:21:42;;;;;;;8.73;4.43;;;12.60;99.90;;;;;;5031938;28;20084;-79
2021/05/28 06:24:08;;;;;;;5.80;3.63;;;12.80;99.90;;;;;;5031202;28;20070;-79
2021/05/28 06:26:34;;;;;;;4.90;3.78;;;12.80;99.90;;;;;;5032468;28;20068;-79
2021/05/28 06:29:02;;;;;;;5.05;3.20;;;12.80;99.90;;;;;;5031997;28;20085;-79
2021/05/28 06:31:28;;;;;;;6.20;3.67;;;12.90;99.90;;;;;;5032977;28;20032;-79
2021/05/28 06:33:54;;;;;;;4.03;3.17;;;12.80;99.90;;;;;;5032868;28;20040;-79
2021/05/28 06:36:20;;;;;;;3.40;3.03;;;12.80;99.90;;;;;;5031439;28;20033;-80
2021/05/28 06:38:45;;;;;;;4.97;3.28;;;12.70;99.90;;;;;;5031502;28;20033;-79
2021/05/28 06:41:11;;;;;;;3.75;3.00;;;12.70;99.90;;;;;;5033175;28;20393;-79
2021/05/28 06:43:37;;;;;;;3.90;2.70;;;12.60;99.90;;;;;;5014487;28;20063;-79
2021/05/28 06:46:02;;;;;;;6.10;3.30;;;12.60;99.90;;;;;;5030179;28;20045;-80
2021/05/28 06:48:28;;;;;;;6.10;3.95;;;12.50;99.90;;;;;;5030211;28;20030;-79
2021/05/28 06:50:54;;;;;;;6.13;3.88;;;12.50;99.90;;;;;;5031725;28;20029;-79
2021/05/28 06:53:20;;;;;;;5.95;4.20;;;12.40;99.90;;;;;;5029868;28;20029;-79
2021/05/28 06:55:46;;;;;;;8.13;4.53;;;12.30;99.90;;;;;;5012166;28;20446;-79
2021/05/28 06:58:12;;;;;;;7.68;4.47;;;12.10;99.90;;;;;;5029421;28;20033;-79
2021/05/28 07:00:38;;;;;;;8.60;4.80;;;12.00;99.90;;;;;;5023856;28;20134;-79
2021/05/28 07:03:04;;;;;;;9.13;5.03;;;11.90;99.90;;;;;;5028657;28;20037;-79
2021/05/28 07:05:29;;;;;;;6.75;4.78;;;11.90;99.90;;;;;;5027275;28;20038;-79
2021/05/28 07:07:56;;;;;;;12.38;4.97;;;11.80;99.90;;;;;;5028771;28;20095;-80
2021/05/28 07:10:23;;;;;;;7.10;4.57;;;11.80;99.90;;;;;;5030128;28;20032;-79
2021/05/28 07:12:49;;;;;;;7.22;5.00;;;11.80;99.90;;;;;;5023501;28;20517;-80
2021/05/28 07:15:16;;;;;;;5.50;4.47;;;11.80;99.90;;;;;;5027713;28;20025;-79
2021/05/28 07:17:42;;;;;;;6.13;3.85;;;11.80;99.90;;;;;;5031009;28;20033;-79
2021/05/28 07:20:08;;;;;;;4.57;3.90;;;11.90;99.90;;;;;;5029910;28;20104;-80
2021/05/28 07:22:34;;;;;;;5.97;4.28;;;11.90;99.90;;;;;;5007096;28;20064;-79
2021/05/28 07:25:00;;;;;;;5.88;4.15;;;11.90;99.90;;;;;;5029093;28;20036;-79
2021/05/28 07:27:27;;;;;;;3.92;3.42;;;11.90;99.90;;;;;;5027769;28;20026;-78
2021/05/28 07:29:54;;;;;;;5.50;3.72;;;11.90;99.90;;;;;;5030668;28;20044;-79
2021/05/28 07:32:19;;;;;;;4.57;3.42;;;11.90;99.90;;;;;;5030852;28;20107;-79
2021/05/28 07:34:45;;;;;;;6.22;3.13;;;11.90;99.90;;;;;;5031480;28;20584;-79
2021/05/28 07:37:11;;;;;;;5.57;3.15;;;12.00;99.90;;;;;;5023157;28;20116;-78
2021/05/28 07:39:37;;;;;;;4.63;3.20;;;12.10;99.90;;;;;;5032314;28;20045;-79
2021/05/28 07:42:04;;;;;;;3.65;2.50;;;12.20;99.90;;;;;;5030705;28;20041;-79
2021/05/28 07:44:29;;;;;;;3.42;2.72;;;12.30;99.90;;;;;;5030342;28;20033;-79
2021/05/28 07:46:56;;;;;;;3.58;2.80;;;12.40;99.90;;;;;;5024919;28;20044;-79
2021/05/28 07:49:21;;;;;;;3.42;2.63;;;12.60;99.90;;;;;;5032903;28;20105;-79
2021/05/28 07:51:47;;;;;;;2.83;2.53;;;12.70;99.90;;;;;;5031092;28;20061;-79
2021/05/28 07:54:13;;;;;;;5.22;2.42;;;12.80;99.90;;;;;;5030300;28;20029;-80
2021/05/28 07:56:39;;;;;;;3.58;2.13;;;12.90;99.90;;;;;;5029823;28;20571;-80
2021/05/28 07:59:06;;;;;;;3.40;2.50;;;13.00;99.90;;;;;;5031632;28;20132;-79
2021/05/28 08:01:32;;;;;;;2.47;2.20;;;13.00;99.90;;;;;;5031759;28;20044;-79
2021/05/28 08:03:58;;;;;;;2.88;2.47;;;13.10;99.90;;;;;;5032063;28;20120;-79
2021/05/28 08:06:25;;;;;;;2.20;2.00;;;13.20;99.90;;;;;;5031125;28;20026;-80
2021/05/28 08:08:51;;;;;;;2.78;2.17;;;13.20;99.90;;;;;;5024681;28;20064;-79
2021/05/28 08:11:17;;;;;;;3.03;2.20;;;13.20;99.90;;;;;;5035911;28;20397;-80
2021/05/28 08:13:42;;;;;;;5.55;2.45;;;13.30;99.90;;;;;;5016611;28;20111;-80
2021/05/28 08:16:08;;;;;;;3.05;2.60;;;13.30;99.90;;;;;;5027321;28;20021;-79
2021/05/28 08:18:34;;;;;;;3.03;2.20;;;13.40;99.90;;;;;;5030974;28;20076;-80
2021/05/28 08:21:01;;;;;;;3.25;2.10;;;13.40;99.90;;;;;;5031045;28;20508;-78
2021/05/28 08:23:27;;;;;;;3.00;2.70;;;13.40;99.90;;;;;;5032785;28;20045;-79
2021/05/28 08:25:52;;;;;;;3.10;2.45;;;13.40;99.90;;;;;;5034935;28;20040;-79
2021/05/28 08:28:19;;;;;;;2.92;2.50;;;13.50;99.90;;;;;;5030746;28;20033;-79
2021/05/28 08:30:45;;;;;;;2.88;2.38;;;13.60;99.90;;;;;;5029055;28;20063;-78
2021/05/28 08:33:12;;;;;;;5.78;2.80;;;13.60;99.90;;;;;;5034481;28;20033;-79
2021/05/28 08:35:39;;;;;;;2.35;2.15;;;13.60;99.90;;;;;;5034706;28;20029;-78
2021/05/28 08:38:05;;;;;;;3.17;2.20;;;13.60;99.90;;;;;;5035327;28;20029;-79
2021/05/28 08:40:32;;;;;;;1.90;1.80;;;13.60;99.90;;;;;;5035750;28;20041;-79
2021/05/28 08:43:00;;;;;;;4.03;2.17;;;13.60;99.90;;;;;;5035828;28;20025;-79
2021/05/28 08:45:57;;;;;;;3.10;1.85;;;13.60;99.90;;;;;;5034592;28;20029;-79
2021/05/28 08:48:23;;;;;;;3.58;2.10;;;13.70;99.90;;;;;;5019665;28;20052;-79
2021/05/28 08:50:49;;;;;;;1.70;1.60;;;13.70;99.90;;;;;;5017548;28;20041;-79
2021/05/28 08:53:16;;;;;;;2.05;1.70;;;13.80;99.90;;;;;;5016124;28;20117;-79
2021/05/28 08:55:43;;;;;;;3.63;2.00;;;13.90;99.90;;;;;;5049815;28;20078;-80
2021/05/28 08:58:21;;;;;;;1.83;1.73;;;14.00;99.90;;;;;;5035446;28;20037;-79
2021/05/28 09:00:48;;;;;;;2.03;1.83;;;14.20;99.90;;;;;;5022259;28;20040;-78
2021/05/28 09:03:22;;;;;;;1.60;1.50;;;14.40;99.90;;;;;;5033924;28;20029;-79
2021/05/28 09:05:50;;;;;;;2.77;2.17;;;14.70;99.90;;;;;;5034442;28;20040;-79
2021/05/28 09:08:30;;;;;;;2.72;1.95;;;14.80;99.90;;;;;;5031640;28;20092;-79
2021/05/28 09:11:09;;;;;;;1.70;1.52;;;14.80;99.90;;;;;;5032973;28;20036;-80
2021/05/28 09:13:44;;;;;;;1.90;1.27;;;14.70;99.90;;;;;;5029878;28;20478;-80
2021/05/28 09:16:12;;;;;;;1.63;1.20;;;14.80;99.90;;;;;;5034163;28;20032;-79
2021/05/28 09:18:49;;;;;;;2.08;1.65;;;14.80;99.90;;;;;;5033172;28;20033;-79
2021/05/28 09:21:23;;;;;;;2.60;1.23;;;14.80;99.90;;;;;;5036025;28;20025;-78
2021/05/28 09:23:50;;;;;;;1.48;1.33;;;15.00;99.90;;;;;;5030235;28;20044;-79
2021/05/28 09:26:16;;;;;;;1.42;1.33;;;15.10;99.90;;;;;;5012915;28;20057;-79
2021/05/28 09:28:45;;;;;;;1.10;0.90;;;15.20;99.90;;;;;;5031786;28;20116;-79
2021/05/28 09:31:19;;;;;;;1.20;1.00;;;15.20;99.90;;;;;;5031781;28;20084;-78
2021/05/28 09:33:47;;;;;;;1.05;1.00;;;15.30;99.90;;;;;;5027046;28;20479;-79
2021/05/28 09:36:16;;;;;;;1.38;1.05;;;15.20;99.90;;;;;;5015329;28;20517;-78
2021/05/28 09:38:56;;;;;;;1.10;1.00;;;15.20;99.90;;;;;;5031150;28;20124;-79
2021/05/28 09:41:56;;;;;;;2.40;1.00;;;15.20;99.90;;;;;;5031129;28;20025;-79
2021/05/28 09:44:30;;;;;;;1.40;1.30;;;15.30;99.90;;;;;;5030137;28;20025;-79
2021/05/28 09:47:05;;;;;;;2.53;1.15;;;15.40;99.90;;;;;;5025702;28;20036;-78
2021/05/28 09:49:56;;;;;;;1.25;1.15;;;15.60;99.90;;;;;;5032857;28;20171;-79
2021/05/28 09:52:27;;;;;;;2.20;1.45;;;15.70;99.90;;;;;;5054824;28;20025;-79
2021/05/28 09:55:06;;;;;;;1.27;1.17;;;15.90;99.90;;;;;;5028176;28;20029;-79
2021/05/28 09:57:53;;;;;;;2.38;0.95;;;16.10;99.90;;;;;;5030748;28;20026;-80
2021/05/28 10:00:24;;;;;;;1.38;1.20;;;16.40;99.90;;;;;;5030327;28;20025;-79
2021/05/28 10:03:08;;;;;;;2.15;0.90;;;16.80;99.90;;;;;;5012428;28;20172;-79
2021/05/28 10:05:40;;;;;;;0.93;0.82;;;16.90;99.90;;;;;;5031366;28;20033;-79
2021/05/28 10:08:11;;;;;;;0.73;0.73;;;17.00;99.90;;;;;;5030814;28;20029;-78
2021/05/28 10:10:38;;;;;;;1.45;1.20;;;17.00;99.90;;;;;;5031019;28;20022;-79
2021/05/28 10:13:11;;;;;;;0.80;0.80;;;17.00;99.90;;;;;;5033801;28;20041;-80
2021/05/28 10:15:41;;;;;;;1.65;1.02;;;16.80;99.90;;;;;;5028356;28;20030;-79
2021/05/28 10:18:07;;;;;;;2.15;1.48;;;16.60;99.90;;;;;;5033638;28;20044;-78
2021/05/28 10:20:34;;;;;;;2.03;1.42;;;16.40;99.90;;;;;;5017041;28;20033;-78
2021/05/28 10:23:00;;;;;;;2.10;1.38;;;16.20;99.90;;;;;;5030456;28;20038;-79
2021/05/28 10:25:25;;;;;;;2.63;1.27;;;15.90;99.90;;;;;;5033633;28;20025;-78
2021/05/28 10:27:57;;;;;;;1.98;1.38;;;15.60;99.90;;;;;;5031656;28;20026;-78
2021/05/28 10:30:25;;;;;;;1.70;1.20;;;15.30;99.90;;;;;;5032686;28;20053;-77
2021/05/28 10:33:18;;;;;;;1.48;1.17;;;15.00;99.90;;;;;;5012574;28;20087;-78
2021/05/28 10:35:51;;;;;;;2.03;1.20;;;14.70;99.90;;;;;;5029938;28;20121;-78
2021/05/28 10:38:29;;;;;;;0.70;0.70;;;14.50;99.90;;;;;;5028133;28;20048;-77
2021/05/28 10:41:04;;;;;;;1.75;0.80;;;14.20;99.90;;;;;;5025597;28;20440;-77
2021/05/28 10:43:31;;;;;;;0.50;0.50;;;14.10;99.90;;;;;;5030508;28;20025;-78
2021/05/28 10:46:06;;;;;;;0.65;0.65;;;14.00;99.90;;;;;;5030544;28;20036;-78
2021/05/28 10:48:38;;;;;;;0.73;0.63;;;14.00;99.90;;;;;;5028990;28;20045;-77
2021/05/28 10:51:14;;;;;;;0.60;0.60;;;14.10;99.90;;;;;;5030145;28;20103;-78
2021/05/28 10:54:00;;;;;;;0.60;0.60;;;14.30;99.90;;;;;;5028038;28;20052;-79
2021/05/28 10:56:28;;;;;;;12.05;2.88;;;14.60;99.90;;;;;;5020048;28;20041;-79
2021/05/28 10:59:21;;;;;;;0.43;0.40;;;14.90;99.90;;;;;;5027172;28;20038;-79
2021/05/28 11:01:51;;;;;;;0.35;0.35;;;15.10;99.90;;;;;;5026481;28;20038;-79
2021/05/28 11:04:23;;;;;;;0.82;0.40;;;15.20;99.90;;;;;;5027783;28;20025;-78
2021/05/28 11:07:03;;;;;;;0.40;0.30;;;15.20;99.90;;;;;;5027339;28;20071;-79
2021/05/28 11:09:38;;;;;;;0.40;0.35;;;15.10;99.90;;;;;;5032404;28;20075;-79
2021/05/28 11:12:08;;;;;;;0.50;0.37;;;15.00;99.90;;;;;;5035060;28;20446;-78
2021/05/28 11:14:36;;;;;;;0.40;0.40;;;14.90;99.90;;;;;;5035468;28;20037;-79
2021/05/28 11:17:04;;;;;;;0.85;0.40;;;14.70;99.90;;;;;;5032844;28;20080;-80
2021/05/28 11:19:39;;;;;;;0.20;0.20;;;14.70;99.90;;;;;;5031638;28;20497;-79
2021/05/28 11:22:11;;;;;;;0.40;0.40;;;14.60;99.90;;;;;;5026049;28;20432;-79
2021/05/28 11:24:58;;;;;;;0.77;0.50;;;14.60;99.90;;;;;;5024142;28;20036;-79
2021/05/28 11:27:24;;;;;;;0.40;0.40;;;14.60;99.90;;;;;;5029411;28;20044;-79
2021/05/28 11:30:02;;;;;;;2.38;0.50;;;14.60;99.90;;;;;;5028925;28;20030;-80
2021/05/28 11:32:36;;;;;;;1.02;0.93;;;14.50;99.90;;;;;;5031073;28;20037;-79
2021/05/28 11:35:15;;;;;;;0.73;0.30;;;14.50;99.90;;;;;;5030917;28;20029;-79
2021/05/28 11:37:56;;;;;;;0.30;0.30;;;14.70;99.90;;;;;;5027709;28;20366;-79
2021/05/28 11:40:27;;;;;;;0.68;0.40;;;14.80;99.90;;;;;;5024478;28;20054;-79
2021/05/28 11:43:18;;;;;;;0.40;0.30;;;15.10;99.90;;;;;;5029305;28;20072;-79
2021/05/28 11:45:54;;;;;;;0.50;0.50;;;15.40;99.90;;;;;;5011932;28;20044;-79
2021/05/28 11:48:22;;;;;;;0.60;0.40;;;15.60;99.90;;;;;;5025323;28;20033;-79
2021/05/28 11:50:51;;;;;;;0.50;0.45;;;15.90;99.90;;;;;;5031516;28;20033;-79
2021/05/28 11:53:17;;;;;;;0.43;0.40;;;16.00;99.90;;;;;;5041001;28;20065;-79
2021/05/28 11:55:48;;;;;;;1.85;0.40;;;16.00;99.90;;;;;;5031959;28;20026;-79
2021/05/28 11:58:16;;;;;;;0.20;0.20;;;15.90;99.90;;;;;;5029059;28;20033;-78
2021/05/28 12:00:43;;;;;;;0.40;0.30;;;15.80;99.90;;;;;;5010963;28;20053;-79
2021/05/28 12:03:09;;;;;;;0.35;0.30;;;15.60;99.90;;;;;;5025925;28;20033;-79
2021/05/28 12:05:39;;;;;;;1.27;0.40;;;15.30;99.90;;;;;;5030647;28;20030;-78
2021/05/28 12:08:10;;;;;;;0.75;0.43;;;15.30;99.90;;;;;;5031309;28;20034;-78
2021/05/28 12:10:38;;;;;;;0.50;0.40;;;15.30;99.90;;;;;;5038575;28;20508;-79
2021/05/28 12:13:09;;;;;;;1.10;0.30;;;15.10;99.90;;;;;;5028081;28;20113;-78
2021/05/28 12:15:37;;;;;;;0.30;0.30;;;15.10;99.90;;;;;;5027468;28;20018;-79
2021/05/28 12:18:18;;;;;;;0.82;0.30;;;15.20;99.90;;;;;;5027626;28;20562;-78
2021/05/28 12:20:50;;;;;;;0.32;0.30;;;15.30;99.90;;;;;;5027138;28;20034;-78
2021/05/28 12:23:25;;;;;;;0.20;0.20;;;15.30;99.90;;;;;;5030719;28;20021;-79
2021/05/28 12:25:58;;;;;;;;;;;15.40;99.90;;;;;;5028130;28;20505;-79
2021/05/28 12:28:26;;;;;;;0.30;0.20;;;15.60;99.90;;;;;;5029728;28;19919;-78
2021/05/28 12:31:01;;;;;;;0.30;0.30;;;15.80;99.90;;;;;;5026586;28;20071;-79
2021/05/28 12:33:30;;;;;;;0.85;0.30;;;16.10;99.90;;;;;;5031102;28;20041;-79
2021/05/28 12:35:59;;;;;;;0.55;0.32;;;16.30;99.90;;;;;;5030345;28;20029;-79
2021/05/28 12:38:36;;;;;;;0.20;0.20;;;16.40;99.90;;;;;;5031027;28;20477;-78
2021/05/28 12:41:04;;;;;;;0.40;0.40;;;16.30;99.90;;;;;;5029535;28;20104;-78
2021/05/28 12:43:31;;;;;;;0.90;0.90;;;16.40;99.90;;;;;;5029563;28;20121;-78
2021/05/28 12:45:58;;;;;;;0.98;0.40;;;16.60;99.90;;;;;;5012781;28;20564;-78
2021/05/28 12:48:53;;;;;;;0.98;0.80;;;16.60;98.40;;;;;;5013235;28;20041;-78
2021/05/28 12:51:28;;;;;;;0.82;0.60;;;16.30;98.40;;;;;;5019546;28;20037;-78
2021/05/28 12:53:54;;;;;;;0.87;0.60;;;16.10;99.90;;;;;;5026824;28;20701;-78
2021/05/28 12:56:22;;;;;;;3.40;3.08;;;16.20;99.90;;;;;;5032522;28;20302;-78
2021/05/28 12:58:50;;;;;;;5.22;4.47;;;16.40;99.90;;;;;;5031815;28;20121;-79
2021/05/28 13:01:19;;;;;;;0.77;0.77;;;16.40;99.90;;;;;;5055718;28;20052;-77